Terminal Aerodrome Forecast
Issued by NWS

Home | Current Version | Previous Version | Text Only | Print | Product List | Glossary On
Versions: 1 2 3 4 5 6 7 8 9 10 11 12 13 14 15 16 17 18 19 20 21 22 23 24 25 26 27 28 29 30 31 32 33 34 35
000
FTUS44 KHGX 222330
TAFCXO
TAF
KCXO 222330Z 2300/2324 02005KT P6SM OVC012
     FM230300 VRB03KT P6SM FEW045
     FM230600 VRB03KT 6SM BR SCT010 BKN030
     FM231500 35005KT P6SM SCT040 BKN060
     FM232100 34005KT P6SM VCSH BKN050=

USA.gov is the U.S. government's official web portal to all federal, state and local government web resources and services.